Time;durP1;ratioP1;P1;durP2;ratioP2;P2;SDS_P1;SDS_P2;PMS_P1;PMS_P2;Temp;Humidity;BMP_temperature;BMP_pressure;BME280_temperature;BME280_humidity;BME280_pressure;Samples;Min_cycle;Max_cycle;Signal;HPM_P1;HPM_P2
2021/01/10 00:01:47;;;;;;;25.10;19.07;;;;;;;6.06;62.71;102306.72;1728305;83;21193;-46
2021/01/10 00:04:15;;;;;;;25.43;19.50;;;;;;;6.07;62.42;102308.47;1737676;81;21614;-47
2021/01/10 00:06:45;;;;;;;23.45;19.23;;;;;;;6.05;62.39;102313.15;1730324;81;21618;-46
2021/01/10 00:09:13;;;;;;;26.80;20.70;;;;;;;6.03;62.41;102309.25;1749339;81;21204;-46
2021/01/10 00:11:42;;;;;;;23.20;18.85;;;;;;;6.01;62.45;102305.77;1757065;81;21206;-46
2021/01/10 00:14:10;;;;;;;22.02;17.77;;;;;;;6.00;62.62;102314.75;1730793;81;21203;-46
2021/01/10 00:16:39;;;;;;;21.57;17.37;;;;;;;5.99;62.55;102313.91;1749614;81;21182;-46
2021/01/10 00:19:08;;;;;;;22.77;18.70;;;;;;;6.01;62.63;102310.05;1749776;81;21308;-46
2021/01/10 00:21:38;;;;;;;24.67;20.35;;;;;;;5.99;62.70;102311.32;1760670;81;21306;-46
2021/01/10 00:24:07;;;;;;;23.77;20.43;;;;;;;5.98;62.76;102309.56;1616921;87;21244;-46
2021/01/10 00:26:35;;;;;;;24.20;19.92;;;;;;;5.98;62.84;102307.39;1646011;85;21271;-46
2021/01/10 00:29:07;;;;;;;22.87;18.25;;;;;;;5.97;62.88;102306.54;1642381;86;21176;-46
2021/01/10 00:31:41;;;;;;;23.10;18.60;;;;;;;6.02;63.01;102308.78;1814467;79;23521;-47
2021/01/10 00:34:10;;;;;;;21.30;17.75;;;;;;;5.98;63.03;102310.84;1777393;80;21592;-46
2021/01/10 00:36:39;;;;;;;24.57;19.55;;;;;;;6.02;63.04;102310.52;1726685;83;21595;-46
2021/01/10 00:39:09;;;;;;;23.22;18.52;;;;;;;6.01;63.01;102308.34;1750744;81;21292;-47
2021/01/10 00:41:38;;;;;;;24.75;19.48;;;;;;;6.01;62.91;102312.22;1740066;82;21284;-47
2021/01/10 00:44:06;;;;;;;24.80;19.20;;;;;;;6.00;62.91;102310.46;1752214;81;21181;-46
2021/01/10 00:46:35;;;;;;;23.62;19.27;;;;;;;6.00;63.05;102307.87;1752130;81;21148;-47
2021/01/10 00:49:04;;;;;;;23.20;20.12;;;;;;;6.00;63.22;102309.17;1751691;81;21162;-47
2021/01/10 00:51:32;;;;;;;24.60;19.70;;;;;;;6.03;63.27;102306.67;1746832;81;21127;-47
2021/01/10 00:54:01;;;;;;;24.32;19.87;;;;;;;6.05;63.11;102305.40;1699523;82;21188;-46
2021/01/10 00:56:29;;;;;;;22.50;18.77;;;;;;;6.05;63.08;102307.57;1738467;82;21162;-46
2021/01/10 00:58:58;;;;;;;23.62;19.48;;;;;;;6.05;63.04;102299.81;1693143;82;21306;-47
2021/01/10 01:01:26;;;;;;;27.02;20.10;;;;;;;6.04;63.07;102294.19;1696071;82;21156;-46
2021/01/10 01:03:55;;;;;;;24.00;18.87;;;;;;;6.04;63.12;102304.52;1735730;81;21197;-47
2021/01/10 01:06:24;;;;;;;23.47;18.75;;;;;;;6.04;63.16;102304.52;1739494;82;21162;-47
2021/01/10 01:08:53;;;;;;;23.85;18.67;;;;;;;6.06;63.10;102309.74;1713795;82;21123;-46
2021/01/10 01:11:30;;;;;;;23.95;19.77;;;;;;;6.06;63.11;102306.72;1743004;81;21204;-47
2021/01/10 01:14:06;;;;;;;22.62;18.50;;;;;;;6.13;63.00;102307.31;1810129;79;22999;-46
2021/01/10 01:16:36;;;;;;;24.65;20.43;;;;;;;6.07;62.88;102308.47;1772452;80;21189;-47
2021/01/10 01:19:08;;;;;;;26.20;20.48;;;;;;;6.07;62.76;102315.34;1668310;85;21184;-46
2021/01/10 01:21:42;;;;;;;23.70;21.10;;;;;;;6.10;62.78;102320.15;1756429;79;28364;-46
2021/01/10 01:24:10;;;;;;;22.30;19.15;;;;;;;6.11;62.83;102313.28;1738624;82;21113;-46
2021/01/10 01:26:39;;;;;;;23.95;19.92;;;;;;;6.18;62.57;102316.02;1693171;82;21286;-47
2021/01/10 01:29:07;;;;;;;24.25;18.87;;;;;;;6.20;62.52;102318.66;1742095;82;21282;-46
2021/01/10 01:31:35;;;;;;;24.20;20.02;;;;;;;6.19;62.59;102317.77;1740572;81;21105;-46
2021/01/10 01:34:04;;;;;;;24.60;19.32;;;;;;;6.17;62.58;102314.28;1744593;82;21168;-47
2021/01/10 01:36:32;;;;;;;31.57;20.95;;;;;;;6.15;62.63;102321.14;1736535;82;21137;-46
2021/01/10 01:39:01;;;;;;;25.48;20.10;;;;;;;6.13;62.70;102318.94;1737795;82;21303;-46
2021/01/10 01:41:36;;;;;;;23.62;19.25;;;;;;;6.13;62.72;102320.23;1741565;82;21147;-46
2021/01/10 01:44:05;;;;;;;23.52;18.85;;;;;;;6.14;62.82;102318.53;1728929;82;21299;-47
2021/01/10 01:46:35;;;;;;;23.00;18.85;;;;;;;6.14;62.83;102318.08;1736021;82;21160;-47
2021/01/10 01:49:07;;;;;;;24.65;20.00;;;;;;;6.15;62.78;102319.84;1738274;82;21612;-46
2021/01/10 01:51:35;;;;;;;23.85;18.98;;;;;;;6.14;62.77;102316.79;1745720;82;21640;-47
2021/01/10 01:54:07;;;;;;;25.88;19.90;;;;;;;6.12;62.65;102309.42;1739779;82;21577;-47
2021/01/10 01:56:35;;;;;;;25.70;20.15;;;;;;;6.11;62.61;102308.98;1743918;82;21169;-47
2021/01/10 01:59:08;;;;;;;22.05;18.15;;;;;;;6.09;62.79;102307.20;1736846;82;21596;-46
2021/01/10 02:01:38;;;;;;;21.55;17.85;;;;;;;6.09;62.87;102310.67;1744772;82;21518;-47
2021/01/10 02:04:38;;;;;;;24.25;18.40;;;;;;;6.11;62.86;102314.16;1732652;82;21152;-48
2021/01/10 02:07:25;;;;;;;23.67;19.23;;;;;;;6.11;62.71;102310.28;1738447;82;21140;-47
2021/01/10 02:10:12;;;;;;;26.65;20.30;;;;;;;6.10;62.72;102307.23;1740496;82;21589;-47
2021/01/10 02:12:47;;;;;;;25.70;20.30;;;;;;;6.09;62.62;102311.08;1741123;82;21626;-46
2021/01/10 02:15:17;;;;;;;22.35;18.70;;;;;;;6.07;62.60;102314.94;1666626;85;21649;-46
2021/01/10 02:17:48;;;;;;;23.32;18.82;;;;;;;6.08;62.68;102311.94;1665017;86;21191;-46
2021/01/10 02:20:27;;;;;;;24.43;18.62;;;;;;;6.07;62.65;102307.19;1656638;84;21617;-46
2021/01/10 02:23:15;;;;;;;22.87;19.52;;;;;;;6.10;62.68;102308.97;1697303;84;21184;-46
2021/01/10 02:25:45;;;;;;;22.10;18.27;;;;;;;6.12;62.60;102312.01;1690083;84;21237;-46
2021/01/10 02:28:16;;;;;;;24.20;19.80;;;;;;;6.12;62.41;102312.01;1697730;84;21644;-46
2021/01/10 02:30:44;;;;;;;27.98;20.77;;;;;;;6.11;62.35;102313.28;1697729;84;21196;-46
2021/01/10 02:33:47;;;;;;;24.87;20.05;;;;;;;6.10;62.59;102305.94;1697082;84;21232;-46
2021/01/10 02:36:49;;;;;;;23.22;19.15;;;;;;;6.16;62.77;102307.36;1773189;79;23169;-46
2021/01/10 02:39:41;;;;;;;22.22;18.75;;;;;;;6.15;62.75;102317.26;1679251;85;21167;-46
2021/01/10 02:42:17;;;;;;;27.50;19.67;;;;;;;6.17;62.57;102310.41;1677472;85;21136;-46
2021/01/10 02:44:55;;;;;;;22.27;18.70;;;;;;;6.18;62.56;102309.55;1680363;84;21180;-46
2021/01/10 02:47:28;;;;;;;26.82;20.77;;;;;;;6.21;62.37;102310.92;1810167;79;23452;-46
2021/01/10 02:49:56;;;;;;;25.80;20.40;;;;;;;6.15;62.34;102309.50;1777482;80;21575;-46
2021/01/10 02:52:25;;;;;;;25.05;18.87;;;;;;;6.13;62.52;102304.72;1778202;80;21187;-46
2021/01/10 02:54:53;;;;;;;22.05;18.62;;;;;;;6.14;62.62;102309.04;1780105;80;21274;-46
2021/01/10 02:57:28;;;;;;;23.90;19.07;;;;;;;6.17;62.59;102313.41;1780116;80;21160;-46
2021/01/10 02:59:56;;;;;;;21.87;19.00;;;;;;;6.17;62.50;102310.41;1777523;80;21190;-47
2021/01/10 03:02:24;;;;;;;22.58;18.67;;;;;;;6.20;62.45;102310.45;1777650;80;21160;-47
2021/01/10 03:04:52;;;;;;;25.30;19.67;;;;;;;6.19;62.56;102307.44;1775851;80;21140;-46
2021/01/10 03:07:21;;;;;;;23.22;19.20;;;;;;;6.19;62.67;102302.27;1774248;80;21759;-47
2021/01/10 03:09:50;;;;;;;23.80;19.40;;;;;;;6.19;62.74;102307.44;1782423;80;21152;-46
2021/01/10 03:12:26;;;;;;;21.23;18.05;;;;;;;6.19;62.76;102297.09;1778824;80;21275;-46
2021/01/10 03:15:00;;;;;;;22.62;18.12;;;;;;;6.19;62.73;102303.56;1729337;82;21154;-47
2021/01/10 03:17:42;;;;;;;21.73;17.40;;;;;;;6.20;62.64;102311.75;1741082;82;21194;-46
2021/01/10 03:20:21;;;;;;;22.95;18.20;;;;;;;6.21;62.61;102306.16;1728951;82;21174;-46
2021/01/10 03:22:51;;;;;;;24.02;19.60;;;;;;;6.19;62.58;102307.44;1728879;82;21158;-46
2021/01/10 03:25:22;;;;;;;25.35;20.32;;;;;;;6.15;62.74;102310.80;1745129;82;21095;-46
2021/01/10 03:27:53;;;;;;;25.37;20.02;;;;;;;6.16;62.91;102312.97;1730002;82;21313;-47
2021/01/10 03:30:21;;;;;;;22.15;18.20;;;;;;;6.14;63.07;102314.65;1739482;82;21272;-47
2021/01/10 03:32:50;;;;;;;24.50;19.05;;;;;;;6.17;63.12;102317.28;1737508;82;21174;-46
2021/01/10 03:35:18;;;;;;;24.77;20.48;;;;;;;6.16;63.07;102320.28;1738186;82;21115;-46
2021/01/10 03:37:47;;;;;;;23.75;19.55;;;;;;;6.16;63.17;102313.81;1739350;82;21125;-46
2021/01/10 03:40:15;;;;;;;27.02;20.77;;;;;;;6.17;63.26;102321.16;1741447;82;21182;-47
2021/01/10 03:42:44;;;;;;;26.60;19.40;;;;;;;6.18;63.28;102326.34;1740932;82;21140;-47
2021/01/10 03:45:14;;;;;;;22.22;18.40;;;;;;;6.17;63.41;102327.20;1741313;82;21133;-46
2021/01/10 03:47:43;;;;;;;23.25;18.80;;;;;;;6.16;63.62;102325.89;1741320;82;21135;-47
2021/01/10 03:50:11;;;;;;;21.27;17.32;;;;;;;6.20;63.78;102328.99;1741373;82;21096;-46
2021/01/10 03:52:40;;;;;;;24.02;19.25;;;;;;;6.23;63.94;102329.92;1736922;82;21351;-47
2021/01/10 03:55:09;;;;;;;22.87;18.25;;;;;;;6.25;63.87;102326.95;1743597;82;21596;-46
2021/01/10 03:57:38;;;;;;;21.42;18.17;;;;;;;6.26;63.88;102328.70;1741653;82;21103;-46
2021/01/10 04:00:09;;;;;;;23.55;17.92;;;;;;;6.24;64.01;102336.84;1739710;82;21167;-46
2021/01/10 04:02:39;;;;;;;19.87;16.40;;;;;;;6.23;64.27;102340.26;1739351;82;21175;-46
2021/01/10 04:05:09;;;;;;;21.17;16.52;;;;;;;6.22;64.33;102341.08;1741232;82;21566;-47
2021/01/10 04:07:37;;;;;;;19.95;15.55;;;;;;;6.19;64.32;102343.62;1741265;82;21154;-47
2021/01/10 04:10:07;;;;;;;20.05;16.10;;;;;;;6.18;64.31;102346.18;1737122;82;21163;-46
2021/01/10 04:12:36;;;;;;;18.85;16.02;;;;;;;6.16;64.26;102352.58;1780498;80;21137;-46
2021/01/10 04:15:07;;;;;;;23.45;17.90;;;;;;;6.12;64.22;102355.95;1775834;80;21128;-47
2021/01/10 04:17:35;;;;;;;20.17;16.37;;;;;;;6.09;64.17;102352.02;1780502;80;21136;-47
2021/01/10 04:20:05;;;;;;;21.25;16.80;;;;;;;6.08;64.26;102358.01;1772227;80;21188;-46
2021/01/10 04:22:33;;;;;;;20.70;17.15;;;;;;;6.10;64.16;102357.62;1778958;80;21180;-47
2021/01/10 04:25:05;;;;;;;20.60;16.05;;;;;;;6.12;63.99;102354.65;1779138;80;21129;-46
2021/01/10 04:27:33;;;;;;;25.02;17.90;;;;;;;6.15;63.71;102362.90;1782971;80;21608;-47
2021/01/10 04:30:06;;;;;;;20.25;16.62;;;;;;;6.12;63.65;102363.70;1769990;80;21593;-47
2021/01/10 04:32:34;;;;;;;19.92;17.17;;;;;;;6.09;63.60;102367.52;1782628;80;21152;-47
2021/01/10 04:35:04;;;;;;;21.42;17.35;;;;;;;6.07;63.69;102365.33;1768430;80;21663;-46
2021/01/10 04:37:32;;;;;;;24.23;20.37;;;;;;;6.06;63.83;102364.86;1779630;80;21136;-47
2021/01/10 04:40:00;;;;;;;19.95;17.40;;;;;;;6.08;64.12;102363.17;1776541;80;21595;-46
2021/01/10 04:42:29;;;;;;;21.97;18.00;;;;;;;6.12;64.19;102370.60;1776885;80;21291;-46
2021/01/10 04:44:58;;;;;;;22.32;18.12;;;;;;;6.13;64.12;102366.75;1775346;80;21148;-47
2021/01/10 04:47:26;;;;;;;21.80;18.57;;;;;;;6.14;64.11;102373.64;1772589;80;21144;-47
2021/01/10 04:49:54;;;;;;;24.45;19.12;;;;;;;6.12;64.07;102372.74;1733236;80;21144;-47
2021/01/10 04:52:23;;;;;;;22.95;18.80;;;;;;;6.11;64.12;102378.77;1771717;80;21164;-46
2021/01/10 04:54:51;;;;;;;22.65;17.90;;;;;;;6.13;64.16;102377.09;1769124;80;21290;-46
2021/01/10 04:57:21;;;;;;;22.25;17.52;;;;;;;6.13;64.19;102384.84;1769355;80;21573;-46
2021/01/10 04:59:50;;;;;;;23.07;17.55;;;;;;;6.13;64.22;102383.55;1770501;80;21175;-47
2021/01/10 05:02:22;;;;;;;22.80;17.95;;;;;;;6.14;64.18;102381.84;1770108;80;21133;-46
2021/01/10 05:04:54;;;;;;;21.40;17.75;;;;;;;6.18;64.10;102378.48;1769556;80;21164;-46
2021/01/10 05:07:22;;;;;;;23.12;19.10;;;;;;;6.18;64.01;102380.62;1678781;85;21354;-47
2021/01/10 05:09:51;;;;;;;21.20;17.60;;;;;;;6.16;63.94;102378.43;1678757;85;21369;-47
2021/01/10 05:12:19;;;;;;;23.87;18.20;;;;;;;6.17;64.00;102386.66;1663623;85;21212;-46
2021/01/10 05:14:47;;;;;;;19.70;16.77;;;;;;;6.16;63.99;102382.30;1677985;85;21589;-46
2021/01/10 05:19:55;;;;;;;21.65;18.00;;;;;;;6.29;63.97;102380.45;1763186;79;22957;-47
2021/01/10 05:22:23;;;;;;;23.83;18.73;;;;;;;6.24;63.70;102385.96;1742924;82;21264;-46
2021/01/10 05:24:51;;;;;;;21.73;18.32;;;;;;;6.22;63.68;102392.78;1732089;82;21274;-47
2021/01/10 05:27:20;;;;;;;21.23;18.40;;;;;;;6.21;63.63;102385.00;1744547;82;21299;-47
2021/01/10 05:29:48;;;;;;;22.20;18.45;;;;;;;6.20;63.59;102384.12;1727292;82;21302;-46
2021/01/10 05:32:18;;;;;;;20.17;17.57;;;;;;;6.19;63.58;102384.98;1736767;82;21208;-47
2021/01/10 05:35:01;;;;;;;23.92;17.87;;;;;;;6.20;63.49;102388.00;1705970;82;21625;-46
2021/01/10 05:37:29;;;;;;;21.75;17.52;;;;;;;6.20;63.42;102386.70;1739363;82;21157;-46
2021/01/10 05:39:58;;;;;;;23.00;18.20;;;;;;;6.20;63.27;102389.28;1735216;82;21156;-47
2021/01/10 05:42:29;;;;;;;24.67;19.55;;;;;;;6.20;63.23;102395.75;1744069;82;21319;-47
2021/01/10 05:45:00;;;;;;;26.17;21.20;;;;;;;6.19;63.05;102408.23;1731943;82;21136;-47
2021/01/10 05:47:38;;;;;;;24.10;19.73;;;;;;;6.17;63.05;102412.50;1744381;82;21125;-47
2021/01/10 05:50:15;;;;;;;24.12;19.00;;;;;;;6.16;63.16;102415.06;1725386;82;21157;-47
2021/01/10 05:52:43;;;;;;;22.25;18.42;;;;;;;6.19;63.16;102415.98;1739868;82;21117;-46
2021/01/10 05:55:12;;;;;;;25.05;18.95;;;;;;;6.21;63.11;102419.48;1734611;82;21557;-47
2021/01/10 05:57:40;;;;;;;23.38;19.57;;;;;;;6.22;63.17;102419.91;1739826;82;21220;-47
2021/01/10 06:00:11;;;;;;;25.32;20.02;;;;;;;6.23;63.15;102416.92;1738062;81;21169;-46
2021/01/10 06:02:39;;;;;;;26.62;20.25;;;;;;;6.20;63.13;102415.13;1738755;82;21172;-46
2021/01/10 06:05:18;;;;;;;23.98;18.67;;;;;;;6.21;63.35;102423.36;1737302;82;21145;-47
2021/01/10 06:07:48;;;;;;;22.42;19.15;;;;;;;6.22;63.44;102417.78;1743737;82;21199;-47
2021/01/10 06:10:27;;;;;;;23.98;18.77;;;;;;;6.24;63.54;102424.73;1740625;82;21224;-46
2021/01/10 06:13:07;;;;;;;22.37;17.48;;;;;;;6.28;63.54;102422.67;1741915;82;21156;-47
2021/01/10 06:15:35;;;;;;;25.35;20.40;;;;;;;6.29;63.43;102429.56;1683838;84;21223;-46
2021/01/10 06:18:05;;;;;;;24.65;19.50;;;;;;;6.24;63.51;102429.91;1687102;83;21256;-47
2021/01/10 06:20:35;;;;;;;24.40;19.48;;;;;;;6.21;63.65;102422.48;1668976;85;21755;-47
2021/01/10 06:23:05;;;;;;;24.32;18.60;;;;;;;6.19;63.82;102425.45;1667112;85;21196;-46
2021/01/10 06:25:37;;;;;;;20.80;17.85;;;;;;;6.21;63.94;102427.23;1666118;85;21181;-46
2021/01/10 06:28:16;;;;;;;21.55;18.60;;;;;;;6.24;63.75;102427.32;1666419;85;21598;-46
2021/01/10 06:30:54;;;;;;;23.25;18.45;;;;;;;6.28;63.61;102435.59;1660278;85;21323;-47
2021/01/10 06:33:31;;;;;;;22.27;18.57;;;;;;;6.31;63.57;102435.64;1665675;85;21187;-46
2021/01/10 06:36:06;;;;;;;24.18;18.27;;;;;;;6.36;63.54;102435.34;1810257;79;23413;-47
2021/01/10 06:38:36;;;;;;;21.20;17.67;;;;;;;6.30;63.62;102440.37;1781331;80;21592;-47
2021/01/10 06:41:41;;;;;;;22.82;18.50;;;;;;;6.25;63.80;102437.22;1779488;80;21152;-47
2021/01/10 06:44:10;;;;;;;22.82;17.37;;;;;;;6.17;64.14;102444.80;1783695;80;21612;-46
2021/01/10 06:46:38;;;;;;;20.92;16.90;;;;;;;6.17;64.40;102448.69;1772354;80;21604;-47
2021/01/10 06:49:08;;;;;;;22.85;18.67;;;;;;;6.14;64.36;102448.59;1780306;80;21161;-46
2021/01/10 06:51:37;;;;;;;22.70;18.60;;;;;;;6.09;64.54;102448.93;1776339;80;21203;-46
2021/01/10 06:54:06;;;;;;;23.02;18.60;;;;;;;6.08;64.66;102454.92;1775038;80;21155;-46
2021/01/10 06:56:34;;;;;;;19.82;16.48;;;;;;;6.10;64.65;102455.83;1781390;80;21148;-47
2021/01/10 06:59:11;;;;;;;21.50;17.20;;;;;;;6.13;64.65;102459.79;1773129;80;21584;-47
2021/01/10 07:01:53;;;;;;;21.93;18.45;;;;;;;6.13;64.45;102457.62;1780669;80;21148;-46
2021/01/10 07:04:24;;;;;;;18.42;15.85;;;;;;;6.14;64.40;102460.23;1773416;80;21207;-47
2021/01/10 07:06:55;;;;;;;22.25;17.85;;;;;;;6.17;64.17;102466.78;1780377;80;21152;-47
2021/01/10 07:09:23;;;;;;;23.98;19.27;;;;;;;6.14;64.12;102471.86;1780355;80;21163;-47
2021/01/10 07:11:51;;;;;;;20.15;16.67;;;;;;;6.12;64.32;102472.69;1777231;80;21164;-46
2021/01/10 07:14:26;;;;;;;23.25;17.70;;;;;;;6.09;64.26;102476.06;1777918;80;21168;-46
2021/01/10 07:17:11;;;;;;;22.32;17.30;;;;;;;6.07;64.35;102472.57;1775966;80;21159;-46
2021/01/10 07:19:46;;;;;;;21.15;17.15;;;;;;;6.09;64.30;102474.77;1747446;81;21114;-46
2021/01/10 07:22:30;;;;;;;20.23;16.82;;;;;;;6.17;64.17;102478.81;1816864;78;23002;-47
2021/01/10 07:25:03;;;;;;;21.23;17.45;;;;;;;6.10;64.05;102478.23;1692691;84;21164;-46
2021/01/10 07:27:34;;;;;;;21.90;18.45;;;;;;;6.06;64.18;102481.14;1659157;85;21183;-46
2021/01/10 07:30:23;;;;;;;20.72;16.65;;;;;;;6.05;64.17;102478.13;1692311;84;21255;-47
2021/01/10 07:32:51;;;;;;;22.22;16.82;;;;;;;6.06;64.17;102482.44;1689612;84;21192;-46
2021/01/10 07:35:19;;;;;;;26.42;19.10;;;;;;;6.06;64.19;102477.27;1692075;84;21337;-47
2021/01/10 07:37:47;;;;;;;21.45;17.32;;;;;;;6.06;64.23;102470.80;1692323;84;21220;-46
2021/01/10 07:40:24;;;;;;;22.80;17.65;;;;;;;6.07;64.05;102469.11;1689172;84;21155;-46
2021/01/10 07:43:00;;;;;;;22.65;19.77;;;;;;;6.05;64.13;102481.11;1692206;85;21159;-47
2021/01/10 07:45:38;;;;;;;24.18;19.82;;;;;;;6.03;64.26;102482.79;1691953;85;21605;-46
2021/01/10 07:48:06;;;;;;;24.18;19.12;;;;;;;6.05;64.39;102489.75;1692206;84;21231;-46
2021/01/10 07:50:36;;;;;;;21.52;17.77;;;;;;;6.09;64.34;102488.98;1691996;84;21184;-47
2021/01/10 07:53:04;;;;;;;21.80;18.05;;;;;;;6.12;64.14;102496.80;1692294;84;21208;-46
2021/01/10 07:55:32;;;;;;;25.30;19.48;;;;;;;6.13;63.98;102501.14;1691188;85;21211;-47
2021/01/10 07:58:08;;;;;;;23.45;18.60;;;;;;;6.16;63.87;102501.64;1692257;84;21770;-46
2021/01/10 08:00:50;;;;;;;25.95;20.62;;;;;;;6.18;63.85;102504.69;1692008;84;21226;-47
2021/01/10 08:03:25;;;;;;;26.87;21.48;;;;;;;6.23;63.75;102503.11;1691218;85;21187;-47
2021/01/10 08:06:05;;;;;;;24.02;19.10;;;;;;;6.29;63.70;102499.37;1778588;79;22987;-46
2021/01/10 08:08:45;;;;;;;25.25;19.92;;;;;;;6.29;63.74;102505.83;1684812;83;21203;-46
2021/01/10 08:11:31;;;;;;;27.70;24.43;;;;;;;6.40;63.82;102504.37;1754631;79;28254;-46
2021/01/10 08:14:00;;;;;;;27.87;22.73;;;;;;;6.45;63.71;102514.39;1729066;83;21144;-46
2021/01/10 08:16:33;;;;;;;26.17;21.93;;;;;;;6.55;63.62;102521.52;1730767;83;21714;-46
2021/01/10 08:19:03;;;;;;;27.93;23.75;;;;;;;6.63;63.46;102526.88;1730413;83;21197;-47
2021/01/10 08:21:32;;;;;;;27.30;23.18;;;;;;;6.69;63.48;102528.31;1730567;83;21222;-47
2021/01/10 08:24:05;;;;;;;28.52;23.20;;;;;;;6.78;63.61;102528.94;1729475;83;21605;-47
2021/01/10 08:26:40;;;;;;;25.23;21.25;;;;;;;6.87;63.38;102536.47;1730431;83;21176;-47
2021/01/10 08:29:08;;;;;;;34.05;24.95;;;;;;;6.98;63.03;102534.11;1730419;83;21196;-47
2021/01/10 08:31:36;;;;;;;28.30;22.45;;;;;;;7.05;62.46;102529.50;1730306;83;21137;-47
2021/01/10 08:34:09;;;;;;;28.73;23.02;;;;;;;7.06;62.00;102529.96;1730515;83;21648;-47
2021/01/10 08:36:37;;;;;;;30.30;22.93;;;;;;;7.00;61.80;102532.02;1730583;83;21577;-47
2021/01/10 08:39:09;;;;;;;29.30;22.80;;;;;;;6.95;61.79;102531.44;1730565;83;21172;-46
2021/01/10 08:41:42;;;;;;;27.95;22.77;;;;;;;6.93;61.82;102524.06;1730310;83;21616;-47
2021/01/10 08:44:15;;;;;;;25.68;22.42;;;;;;;6.91;61.80;102522.75;1730559;83;21162;-46
2021/01/10 08:46:51;;;;;;;27.95;22.62;;;;;;;6.94;61.89;102514.19;1730526;83;21614;-46
2021/01/10 08:49:23;;;;;;;27.13;23.12;;;;;;;6.95;61.65;102515.91;1730324;83;21165;-46
2021/01/10 08:51:56;;;;;;;26.12;21.25;;;;;;;6.97;61.69;102506.47;1772120;79;23095;-46
2021/01/10 08:54:27;;;;;;;26.25;20.65;;;;;;;6.93;61.51;102509.83;1728442;82;21561;-46
2021/01/10 08:56:56;;;;;;;29.10;23.05;;;;;;;6.92;61.27;102508.11;1741609;82;21573;-47
2021/01/10 08:59:38;;;;;;;27.73;22.73;;;;;;;6.90;61.25;102495.55;1737028;82;21165;-46
2021/01/10 09:02:07;;;;;;;24.80;21.35;;;;;;;6.89;61.12;102500.27;1736681;82;21149;-46
2021/01/10 09:04:42;;;;;;;26.48;20.62;;;;;;;6.90;61.29;102502.02;1742510;82;21164;-46
2021/01/10 09:07:21;;;;;;;26.50;20.50;;;;;;;6.96;61.03;102500.45;1762672;79;22953;-46
2021/01/10 09:10:03;;;;;;;24.70;20.85;;;;;;;6.97;61.06;102497.41;1684085;83;21179;-46
2021/01/10 09:12:36;;;;;;;24.77;21.05;;;;;;;6.96;60.56;102502.15;1681406;84;21203;-46
2021/01/10 09:15:17;;;;;;;26.30;20.43;;;;;;;6.86;61.01;102492.45;1683176;84;21317;-46
2021/01/10 09:17:56;;;;;;;26.33;23.52;;;;;;;6.89;61.19;102484.73;1792238;79;28569;-46
2021/01/10 09:20:33;;;;;;;25.27;21.97;;;;;;;6.87;61.09;102490.30;1750211;80;21161;-46
2021/01/10 09:23:09;;;;;;;26.40;21.48;;;;;;;6.90;61.44;102486.50;1750599;81;21327;-47
2021/01/10 09:25:38;;;;;;;26.30;20.45;;;;;;;6.96;61.68;102481.45;1750529;81;21600;-47
2021/01/10 09:28:16;;;;;;;23.45;19.23;;;;;;;7.02;61.33;102476.39;1750983;81;21136;-47
2021/01/10 09:30:53;;;;;;;24.02;20.20;;;;;;;7.04;61.04;102476.00;1757800;81;21167;-46
2021/01/10 09:33:30;;;;;;;33.20;24.12;;;;;;;7.00;60.93;102472.91;1747049;81;21387;-47
2021/01/10 09:36:00;;;;;;;21.77;18.07;;;;;;;6.97;60.95;102463.77;1747078;81;21168;-46
2021/01/10 09:38:29;;;;;;;23.65;18.77;;;;;;;6.98;60.70;102459.06;1753592;81;21148;-46
2021/01/10 09:41:09;;;;;;;22.65;17.95;;;;;;;6.92;60.23;102459.82;1753759;81;21596;-46
2021/01/10 09:43:44;;;;;;;21.80;17.20;;;;;;;6.85;60.24;102454.47;1753714;81;21183;-47
2021/01/10 09:46:35;;;;;;;21.30;16.40;;;;;;;6.81;60.26;102455.25;1753293;81;21207;-47
2021/01/10 09:49:17;;;;;;;22.30;18.55;;;;;;;6.83;60.15;102448.39;1755799;81;21225;-46
2021/01/10 09:52:00;;;;;;;22.07;17.75;;;;;;;6.84;60.19;102446.27;1753822;81;21592;-47
2021/01/10 09:54:31;;;;;;;23.22;17.37;;;;;;;6.87;59.99;102452.78;1753702;81;21289;-47
2021/01/10 09:57:16;;;;;;;26.12;20.62;;;;;;;6.88;60.25;102446.78;1753454;81;21325;-46
2021/01/10 09:59:57;;;;;;;31.97;22.62;;;;;;;6.90;60.24;102445.98;1750292;81;21191;-47
2021/01/10 10:02:28;;;;;;;25.62;20.72;;;;;;;6.98;60.43;102446.12;1750368;81;21298;-46
2021/01/10 10:05:12;;;;;;;25.25;19.57;;;;;;;7.05;60.45;102442.78;1752878;81;21167;-47
2021/01/10 10:07:48;;;;;;;22.65;18.10;;;;;;;7.12;60.51;102444.66;1756329;81;21778;-47
2021/01/10 10:10:26;;;;;;;22.10;18.27;;;;;;;7.23;59.99;102433.66;1805797;79;23424;-46
2021/01/10 10:13:04;;;;;;;20.82;17.48;;;;;;;7.25;59.80;102441.47;1784043;80;21580;-46
2021/01/10 10:15:45;;;;;;;22.35;18.15;;;;;;;7.26;59.47;102438.02;1776815;80;21290;-46
2021/01/10 10:18:18;;;;;;;21.75;17.23;;;;;;;7.24;59.55;102439.71;1777136;80;21147;-46
2021/01/10 10:20:46;;;;;;;22.40;18.80;;;;;;;7.25;59.59;102436.30;1777200;80;21152;-46
2021/01/10 10:23:15;;;;;;;25.23;19.50;;;;;;;7.26;59.71;102439.32;1780864;80;21267;-47
2021/01/10 10:25:46;;;;;;;22.87;18.37;;;;;;;7.25;59.45;102433.70;1774081;80;21159;-47
2021/01/10 10:28:14;;;;;;;20.92;17.15;;;;;;;7.24;59.44;102428.94;1780176;80;21144;-47
2021/01/10 10:30:43;;;;;;;22.17;17.35;;;;;;;7.25;59.16;102435.00;1778835;80;21156;-47
2021/01/10 10:33:11;;;;;;;22.93;18.65;;;;;;;7.29;59.33;102438.09;1778003;80;21303;-47
2021/01/10 10:35:40;;;;;;;25.60;19.98;;;;;;;7.34;59.08;102432.14;1782882;80;21329;-47
2021/01/10 10:38:10;;;;;;;21.12;17.57;;;;;;;7.41;59.20;102435.72;1775493;80;21132;-47
2021/01/10 10:40:40;;;;;;;24.52;18.42;;;;;;;7.47;58.92;102431.94;1790745;80;21164;-47
2021/01/10 10:43:08;;;;;;;22.10;17.07;;;;;;;7.47;58.48;102438.42;1777266;80;21628;-46
2021/01/10 10:45:36;;;;;;;21.23;17.90;;;;;;;7.43;58.28;102437.92;1775836;80;21188;-47
2021/01/10 10:48:06;;;;;;;21.50;17.60;;;;;;;7.38;58.52;102437.83;1780786;80;21634;-47
2021/01/10 10:50:35;;;;;;;21.50;17.67;;;;;;;7.39;58.85;102434.83;1780025;80;21128;-47
2021/01/10 10:55:41;;;;;;;23.45;18.77;;;;;;;7.48;58.82;102439.30;1807806;79;22227;-47
2021/01/10 10:58:10;;;;;;;25.50;19.10;;;;;;;7.46;58.70;102447.02;1771785;80;21277;-47
2021/01/10 11:00:40;;;;;;;25.00;19.70;;;;;;;7.49;58.94;102448.38;1765303;80;21168;-46
2021/01/10 11:03:09;;;;;;;24.23;19.37;;;;;;;7.57;59.03;102458.45;1774211;80;21100;-46
2021/01/10 11:05:38;;;;;;;20.17;16.90;;;;;;;7.65;58.75;102454.27;1775495;80;21159;-47
2021/01/10 11:08:06;;;;;;;22.52;18.52;;;;;;;7.73;58.08;102452.68;1770806;80;21298;-46
2021/01/10 11:10:34;;;;;;;23.15;18.10;;;;;;;7.75;57.86;102453.58;1775262;80;21132;-47
2021/01/10 11:13:03;;;;;;;22.25;18.90;;;;;;;7.77;57.90;102448.00;1775130;80;21104;-47
2021/01/10 11:15:31;;;;;;;21.45;17.40;;;;;;;7.79;57.96;102442.41;1772775;80;21104;-47
2021/01/10 11:18:00;;;;;;;23.42;17.75;;;;;;;7.79;57.87;102442.41;1771939;80;21145;-47
2021/01/10 11:20:29;;;;;;;22.42;18.40;;;;;;;7.82;57.92;102446.37;1771855;80;21152;-47
2021/01/10 11:23:01;;;;;;;20.77;17.20;;;;;;;7.87;57.75;102446.00;1767992;80;21275;-47
2021/01/10 11:25:29;;;;;;;21.05;18.07;;;;;;;7.89;57.95;102441.71;1771741;80;21724;-47
2021/01/10 11:27:58;;;;;;;21.27;18.15;;;;;;;7.91;58.01;102447.79;1771796;80;21143;-47
2021/01/10 11:30:26;;;;;;;20.55;17.55;;;;;;;7.93;57.82;102451.28;1770310;80;21120;-47
2021/01/10 11:32:55;;;;;;;19.85;17.30;;;;;;;7.93;57.77;102448.69;1769152;80;21473;-47
2021/01/10 11:35:24;;;;;;;20.25;17.05;;;;;;;7.95;57.68;102440.54;1770082;80;21183;-47
2021/01/10 11:37:54;;;;;;;19.02;17.00;;;;;;;7.97;57.71;102441.86;1772359;80;21132;-47
2021/01/10 11:40:22;;;;;;;19.98;17.52;;;;;;;7.99;57.87;102442.33;1770781;80;21277;-47
2021/01/10 11:42:50;;;;;;;21.82;16.82;;;;;;;8.03;57.65;102435.05;1774501;80;21156;-47
2021/01/10 11:45:19;;;;;;;20.60;16.00;;;;;;;8.07;57.33;102436.84;1775110;80;21277;-46